createdAt,value
2023-03-12T00:01:14.538Z,10.45
2023-03-12T00:03:41.657Z,20.65
2023-03-12T00:06:13.955Z,10.73
2023-03-12T00:08:41.042Z,17.35
2023-03-12T00:11:30.847Z,20.27
2023-03-12T00:13:59.030Z,12.88
2023-03-12T00:16:27.133Z,19.77
2023-03-12T00:18:55.378Z,12.40
2023-03-12T00:21:31.324Z,11.63
2023-03-12T00:23:58.086Z,12.32
2023-03-12T00:26:24.965Z,11.95
2023-03-12T00:29:00.641Z,8.88
2023-03-12T00:31:30.508Z,9.70
2023-03-12T00:34:11.120Z,14.65
2023-03-12T00:43:14.361Z,19.80
2023-03-12T01:01:19.162Z,17.37
2023-03-12T01:21:58.615Z,14.75
2023-03-12T02:10:35.888Z,13.82
2023-03-12T02:13:08.895Z,12.63
2023-03-12T02:15:52.932Z,16.40
2023-03-12T02:18:27.584Z,10.38
2023-03-12T02:24:21.274Z,11.30
2023-03-12T02:27:42.513Z,15.15
2023-03-12T02:30:30.894Z,9.68
2023-03-12T02:33:09.206Z,14.82
2023-03-12T02:35:52.800Z,20.33
2023-03-12T02:39:05.059Z,16.48
2023-03-12T02:42:15.410Z,13.23
2023-03-12T02:44:42.381Z,9.43
2023-03-12T02:47:24.177Z,20.95
2023-03-12T03:14:00.095Z,8.43
2023-03-12T03:16:38.843Z,16.58
2023-03-12T03:19:18.428Z,12.48
2023-03-12T03:21:45.516Z,15.93
2023-03-12T03:24:21.314Z,12.15
2023-03-12T03:26:48.069Z,11.43
2023-03-12T03:29:32.445Z,10.45
2023-03-12T03:31:59.339Z,19.55
2023-03-12T03:34:26.106Z,17.03
2023-03-12T03:36:55.758Z,12.85
2023-03-12T03:42:03.394Z,7.03
2023-03-12T03:44:47.391Z,9.98
2023-03-12T03:47:26.455Z,11.03
2023-03-12T03:49:53.146Z,9.85
2023-03-12T03:52:23.125Z,15.85
2023-03-12T03:55:09.235Z,11.35
2023-03-12T03:57:35.894Z,10.48
2023-03-12T04:00:03.871Z,10.03
2023-03-12T04:02:33.505Z,9.27
2023-03-12T04:05:09.318Z,15.32
2023-03-12T04:07:53.596Z,12.13
2023-03-12T04:10:26.868Z,12.93
2023-03-12T04:13:04.991Z,8.37
2023-03-12T04:15:37.411Z,10.60
2023-03-12T04:18:13.466Z,5.85
2023-03-12T04:20:51.902Z,8.85
2023-03-12T04:23:18.883Z,11.45
2023-03-12T04:26:08.878Z,21.07
2023-03-12T04:28:39.146Z,19.83
2023-03-12T04:31:32.344Z,10.18
2023-03-12T04:33:59.443Z,13.13
2023-03-12T04:36:27.200Z,8.63
2023-03-12T04:38:59.635Z,9.43
2023-03-12T04:41:36.308Z,13.25
2023-03-12T04:45:10.318Z,8.88
2023-03-12T04:47:50.587Z,12.52
2023-03-12T04:50:32.491Z,11.40
2023-03-12T04:53:07.714Z,8.73
2023-03-12T04:55:34.830Z,8.68
2023-03-12T04:58:40.018Z,8.20
2023-03-12T05:01:06.769Z,19.77
2023-03-12T05:03:45.571Z,21.88
2023-03-12T05:06:24.970Z,13.70
2023-03-12T05:08:52.604Z,8.32
2023-03-12T05:11:39.616Z,14.15
2023-03-12T05:14:10.306Z,13.30
2023-03-12T05:16:49.013Z,19.63
2023-03-12T05:19:16.095Z,10.87
2023-03-12T05:22:01.384Z,14.73
2023-03-12T05:24:46.842Z,14.88
2023-03-12T05:27:15.287Z,11.18
2023-03-12T05:29:54.414Z,19.73
2023-03-12T05:33:34.952Z,8.40
2023-03-12T05:36:19.801Z,13.25
2023-03-12T05:38:58.956Z,9.45
2023-03-12T05:41:38.434Z,12.45
2023-03-12T05:44:14.524Z,14.38
2023-03-12T05:46:58.863Z,13.30
2023-03-12T05:49:28.119Z,10.65
2023-03-12T05:52:08.274Z,10.38
2023-03-12T05:54:37.359Z,10.80
2023-03-12T05:57:04.208Z,11.70
2023-03-12T05:59:30.995Z,11.57
2023-03-12T06:02:00.178Z,8.88
2023-03-12T06:04:27.042Z,15.10
2023-03-12T06:06:53.866Z,13.35
2023-03-12T06:09:20.582Z,13.55
2023-03-12T06:11:47.393Z,14.50
2023-03-12T06:14:14.570Z,11.40
2023-03-12T06:16:41.590Z,16.08
2023-03-12T06:19:08.410Z,13.57
2023-03-12T06:21:36.215Z,13.25
2023-03-12T06:24:03.193Z,12.83
2023-03-12T06:26:29.974Z,21.27
2023-03-12T06:28:56.840Z,14.13
2023-03-12T06:34:12.428Z,11.00
2023-03-12T06:36:40.309Z,20.60
2023-03-12T06:39:20.705Z,17.73
2023-03-12T06:41:47.466Z,16.20
2023-03-12T06:44:27.877Z,11.38
2023-03-12T06:47:18.564Z,15.98
2023-03-12T06:49:53.774Z,13.07
2023-03-12T06:55:18.578Z,18.02
2023-03-12T06:57:45.903Z,24.20
2023-03-12T07:00:13.399Z,12.93
2023-03-12T07:02:42.820Z,14.53
2023-03-12T07:05:10.193Z,17.08
2023-03-12T07:07:36.969Z,18.33
2023-03-12T07:10:06.544Z,16.77
2023-03-12T07:12:33.699Z,13.93
2023-03-12T07:20:24.179Z,19.42
2023-03-12T07:22:57.001Z,15.98
2023-03-12T07:25:24.459Z,16.08
2023-03-12T07:28:06.349Z,15.23
2023-03-12T07:30:35.682Z,15.98
2023-03-12T07:33:03.985Z,20.85
2023-03-12T07:35:31.179Z,17.70
2023-03-12T07:37:58.534Z,19.30
2023-03-12T07:54:36.299Z,19.97
2023-03-12T08:08:01.064Z,17.53
2023-03-12T08:13:13.027Z,16.05
2023-03-12T08:18:43.210Z,19.88
2023-03-12T08:21:22.062Z,24.53
2023-03-12T08:23:49.191Z,24.42
2023-03-12T08:28:57.645Z,22.33
2023-03-12T08:31:39.723Z,20.15
2023-03-12T08:34:10.104Z,22.23
2023-03-12T08:36:36.790Z,20.45
2023-03-12T08:42:41.308Z,18.80
2023-03-12T08:45:09.129Z,22.70
2023-03-12T08:47:51.261Z,20.27
2023-03-12T08:53:00.255Z,22.70
2023-03-12T08:55:27.256Z,27.65
2023-03-12T09:00:56.273Z,19.83
2023-03-12T09:03:37.384Z,24.17
2023-03-12T09:09:21.212Z,27.17
2023-03-12T09:15:09.881Z,25.97
2023-03-12T09:17:37.119Z,28.48
2023-03-12T09:20:05.342Z,23.65
2023-03-12T09:22:31.984Z,28.98
2023-03-12T09:24:58.748Z,30.20
2023-03-12T09:27:25.504Z,35.07
2023-03-12T09:30:00.682Z,33.22
2023-03-12T09:32:28.614Z,32.67
2023-03-12T09:35:04.847Z,35.45
2023-03-12T09:37:31.611Z,31.60
2023-03-12T09:39:58.708Z,43.57
2023-03-12T09:42:56.320Z,39.42
2023-03-12T09:45:26.449Z,36.83
2023-03-12T09:47:56.998Z,43.30
2023-03-12T09:50:37.189Z,33.55
2023-03-12T09:53:09.835Z,39.63
2023-03-12T09:55:39.545Z,37.45
2023-03-12T09:58:19.552Z,37.38
2023-03-12T10:00:47.628Z,37.40
2023-03-12T10:03:32.151Z,35.05
2023-03-12T10:06:16.525Z,39.60
2023-03-12T10:09:00.149Z,39.55
2023-03-12T10:11:34.990Z,39.97
2023-03-12T10:14:35.549Z,32.85
2023-03-12T10:17:39.227Z,37.20
2023-03-12T10:20:24.739Z,32.33
2023-03-12T10:23:07.804Z,35.10
2023-03-12T10:42:05.021Z,31.58
2023-03-12T10:44:54.078Z,28.27
2023-03-12T11:14:22.277Z,41.78
2023-03-12T11:17:35.790Z,39.78
2023-03-12T11:24:08.390Z,39.07
2023-03-12T11:36:49.867Z,41.75
2023-03-12T11:39:31.463Z,30.10
2023-03-12T11:45:34.919Z,32.00
2023-03-12T11:48:32.773Z,36.78
2023-03-12T11:51:20.227Z,27.10
2023-03-12T11:53:57.162Z,34.33
2023-03-12T11:56:35.749Z,22.23
2023-03-12T11:59:20.875Z,32.13
2023-03-12T12:05:53.367Z,31.42
2023-03-12T12:09:00.591Z,35.73
2023-03-12T12:12:13.498Z,29.08
2023-03-12T12:15:03.310Z,33.80
2023-03-12T12:17:54.685Z,40.25
2023-03-12T12:21:06.167Z,35.42
2023-03-12T12:23:54.649Z,31.77
2023-03-12T12:26:46.526Z,33.00
2023-03-12T12:29:35.616Z,37.22
2023-03-12T12:35:47.492Z,41.92
2023-03-12T12:38:32.985Z,31.43
2023-03-12T12:41:41.369Z,37.45
2023-03-12T12:44:49.937Z,37.10
2023-03-12T12:50:48.891Z,37.33
2023-03-12T12:59:26.401Z,33.72
2023-03-12T13:02:19.090Z,35.30
2023-03-12T13:05:01.264Z,38.53
2023-03-12T13:07:28.265Z,32.77
2023-03-12T13:09:57.271Z,37.35
2023-03-12T13:12:52.800Z,35.88
2023-03-12T13:15:31.871Z,27.77
2023-03-12T13:17:58.464Z,36.60
2023-03-12T13:21:01.840Z,30.47
2023-03-12T13:26:51.963Z,31.85
2023-03-12T13:29:30.585Z,39.63
2023-03-12T13:46:00.012Z,30.80
2023-03-12T13:48:47.842Z,31.95
2023-03-12T13:51:27.170Z,30.90
2023-03-12T13:54:18.310Z,31.20
2023-03-12T14:02:56.137Z,22.38
2023-03-12T14:05:33.181Z,25.83
2023-03-12T14:08:36.060Z,26.55
2023-03-12T14:17:57.974Z,23.17
2023-03-12T14:21:15.481Z,19.07
2023-03-12T14:23:56.557Z,27.25
2023-03-12T14:26:38.194Z,22.00
2023-03-12T14:32:22.590Z,24.75
2023-03-12T14:35:25.304Z,27.43
2023-03-12T14:38:05.566Z,30.98
2023-03-12T14:43:52.321Z,24.33
2023-03-12T14:46:28.125Z,22.80
2023-03-12T14:48:55.012Z,32.43
2023-03-12T14:51:44.078Z,35.80
2023-03-12T14:56:52.029Z,27.95
2023-03-12T14:59:35.230Z,30.02
2023-03-12T15:02:22.826Z,35.03
2023-03-12T15:05:02.285Z,33.17
2023-03-12T15:07:35.995Z,32.72
2023-03-12T15:10:26.045Z,35.65
2023-03-12T15:13:12.653Z,29.23
2023-03-12T15:15:42.348Z,24.87
2023-03-12T15:18:28.899Z,35.30
2023-03-12T15:21:07.868Z,30.40
2023-03-12T15:23:46.782Z,25.33
2023-03-12T15:26:23.513Z,29.55
2023-03-12T15:29:39.318Z,27.60
2023-03-12T15:32:20.179Z,35.38
2023-03-12T15:34:47.510Z,35.42
2023-03-12T15:37:56.540Z,28.88
2023-03-12T15:40:26.931Z,25.20
2023-03-12T15:43:03.362Z,26.60
2023-03-12T15:45:38.311Z,29.45
2023-03-12T15:48:17.340Z,29.98
2023-03-12T15:50:45.155Z,28.00
2023-03-12T15:53:32.532Z,27.05
2023-03-12T15:56:16.907Z,32.80
2023-03-12T15:58:43.570Z,30.38
2023-03-12T16:01:25.108Z,30.95
2023-03-12T16:03:52.096Z,28.33
2023-03-12T16:06:25.908Z,36.13
2023-03-12T16:09:40.506Z,41.07
2023-03-12T16:12:37.388Z,35.08
2023-03-12T16:15:47.698Z,32.80
2023-03-12T16:18:26.783Z,37.80
2023-03-12T16:21:14.076Z,39.10
2023-03-12T16:23:44.242Z,28.13
2023-03-12T16:26:31.175Z,40.08
2023-03-12T16:29:21.074Z,30.50
2023-03-12T16:31:54.304Z,33.28
2023-03-12T16:34:26.680Z,33.47
2023-03-12T16:37:15.060Z,35.90
2023-03-12T16:39:44.852Z,33.00
2023-03-12T16:42:32.086Z,41.58
2023-03-12T16:44:58.896Z,27.45
2023-03-12T16:47:41.175Z,32.75
2023-03-12T16:50:18.555Z,33.77
2023-03-12T16:53:00.709Z,39.90
2023-03-12T16:55:53.469Z,41.40
2023-03-12T16:58:38.288Z,42.50
2023-03-12T17:01:13.169Z,35.47
2023-03-12T17:03:55.325Z,43.37
2023-03-12T17:06:26.572Z,33.88
2023-03-12T17:09:23.874Z,35.03
2023-03-12T17:12:06.069Z,34.85
2023-03-12T17:14:41.070Z,32.92
2023-03-12T17:17:11.579Z,27.47
2023-03-12T17:19:44.512Z,32.20
2023-03-12T17:22:11.379Z,25.20
2023-03-12T17:24:44.605Z,37.65
2023-03-12T17:29:40.472Z,25.43
2023-03-12T17:32:23.034Z,29.13
2023-03-12T17:38:51.053Z,25.73
2023-03-12T17:41:25.874Z,27.45
2023-03-12T17:43:56.472Z,18.63
2023-03-12T17:46:35.547Z,22.80
2023-03-12T17:49:02.662Z,20.35
2023-03-12T17:54:42.691Z,17.98
2023-03-12T17:57:09.450Z,17.77
2023-03-12T17:59:57.450Z,19.65
2023-03-12T18:02:46.560Z,19.65
2023-03-12T18:08:02.784Z,18.20
2023-03-12T18:10:58.263Z,23.67
2023-03-12T18:20:39.400Z,11.90
2023-03-12T18:41:48.870Z,18.30
2023-03-12T18:44:29.892Z,16.85
2023-03-12T18:47:16.556Z,21.02
2023-03-12T18:50:05.099Z,13.52
2023-03-12T18:55:38.782Z,18.73
2023-03-12T19:02:20.176Z,25.63
2023-03-12T19:04:40.756Z,16.50
2023-03-12T19:07:08.549Z,14.90
2023-03-12T19:09:44.540Z,17.83
2023-03-12T19:12:25.895Z,15.90
2023-03-12T19:15:13.798Z,16.23
2023-03-12T19:22:57.314Z,16.33
2023-03-12T19:24:11.145Z,13.73
2023-03-12T19:29:39.934Z,14.27
2023-03-12T19:32:11.715Z,21.15
2023-03-12T19:37:26.316Z,21.53
2023-03-12T19:42:49.963Z,19.35
2023-03-12T19:48:22.455Z,26.17
2023-03-12T19:50:56.711Z,16.87
2023-03-12T19:53:23.796Z,19.38
2023-03-12T19:56:21.095Z,17.98
2023-03-12T19:58:38.195Z,20.58
2023-03-12T20:01:09.605Z,13.73
2023-03-12T20:03:36.576Z,17.47
2023-03-12T20:06:03.960Z,20.58
2023-03-12T20:08:30.890Z,17.60
2023-03-12T20:11:06.804Z,19.85
2023-03-12T20:13:33.866Z,21.88
2023-03-12T20:16:02.328Z,17.50
2023-03-12T20:18:33.634Z,23.20
2023-03-12T20:21:00.546Z,17.48
2023-03-12T20:23:27.624Z,20.05
2023-03-12T20:26:18.278Z,16.60
2023-03-12T20:28:54.091Z,21.53
2023-03-12T20:31:23.652Z,19.83
2023-03-12T20:33:50.662Z,20.60
2023-03-12T20:36:17.385Z,19.90
2023-03-12T20:38:44.198Z,24.50
2023-03-12T20:41:14.326Z,25.93
2023-03-12T20:43:44.938Z,26.33
2023-03-12T20:46:12.977Z,25.65
2023-03-12T20:48:39.697Z,26.98
2023-03-12T20:51:08.768Z,30.50
2023-03-12T20:56:22.984Z,25.15
2023-03-12T20:58:49.959Z,23.00
2023-03-12T21:01:16.725Z,22.15
2023-03-12T21:03:43.614Z,23.27
2023-03-12T21:06:10.404Z,28.53
2023-03-12T21:08:37.165Z,25.13
2023-03-12T21:11:07.302Z,30.70
2023-03-12T21:13:51.142Z,21.60
2023-03-12T21:16:32.419Z,22.25
2023-03-12T21:19:14.758Z,23.70
2023-03-12T21:21:41.395Z,26.20
2023-03-12T21:24:20.493Z,19.75
2023-03-12T21:26:47.269Z,26.85
2023-03-12T21:29:22.868Z,29.23
2023-03-12T21:31:49.545Z,29.53
2023-03-12T21:34:23.708Z,24.35
2023-03-12T21:36:50.663Z,29.27
2023-03-12T21:39:42.208Z,23.95
2023-03-12T21:42:15.011Z,29.75
2023-03-12T21:44:41.685Z,29.20
2023-03-12T21:49:49.189Z,26.95
2023-03-12T21:52:21.962Z,33.03
2023-03-12T21:54:48.876Z,41.83
2023-03-12T21:57:47.750Z,26.63
2023-03-12T22:00:35.750Z,28.13
2023-03-12T22:03:05.341Z,40.88
2023-03-12T22:05:32.062Z,23.73
2023-03-12T22:08:08.210Z,33.35
2023-03-12T22:10:44.095Z,27.03
2023-03-12T22:13:18.040Z,28.02
2023-03-12T22:16:08.184Z,35.00
2023-03-12T22:18:46.198Z,34.75
2023-03-12T22:24:24.386Z,28.00
2023-03-12T22:29:50.482Z,31.23
2023-03-12T22:32:17.213Z,28.95
2023-03-12T22:34:43.870Z,32.95
2023-03-12T22:37:19.773Z,31.87
2023-03-12T22:39:46.681Z,29.98
2023-03-12T22:42:20.421Z,34.15
2023-03-12T22:44:47.065Z,31.25
2023-03-12T22:47:32.188Z,29.75
2023-03-12T22:50:09.131Z,27.90
2023-03-12T22:52:35.866Z,18.95
2023-03-12T22:55:03.164Z,32.17
2023-03-12T22:57:33.150Z,28.23
2023-03-12T23:00:18.245Z,25.00
2023-03-12T23:02:45.253Z,28.63
2023-03-12T23:05:18.971Z,31.42
2023-03-12T23:10:57.654Z,32.95
2023-03-12T23:13:39.618Z,28.02
2023-03-12T23:16:11.689Z,25.03
2023-03-12T23:18:41.639Z,33.50
2023-03-12T23:21:10.546Z,25.15
2023-03-12T23:23:43.163Z,33.63
2023-03-12T23:26:22.388Z,28.10
2023-03-12T23:28:49.256Z,36.83
2023-03-12T23:31:16.328Z,30.98
2023-03-12T23:33:44.012Z,27.48
2023-03-12T23:36:13.327Z,24.35
2023-03-12T23:38:40.553Z,23.15
2023-03-12T23:41:22.279Z,29.03
2023-03-12T23:43:50.214Z,30.30
2023-03-12T23:46:20.752Z,37.35
2023-03-12T23:48:48.192Z,23.20
2023-03-12T23:51:23.705Z,26.17
2023-03-12T23:53:52.418Z,33.17
2023-03-12T23:56:34.081Z,27.30
2023-03-12T23:59:00.851Z,27.83
